Aeroporto :
LOGIN :

Iscrizione | Disclaimer

   EN    FR    IT 

 










Sommario :    VFR   VFR Marginale   IFR   IFR Intensivo   IFR Molto Intensivo
Visibilità : 
Base nubi : 
>= 8 km
>= 3000ft
5 / 8 km
1000 / 3000 ft
1500m / 5 km
500 / 1000 ft
800 / 1500m
200 / 500 ft
< 800m
< 200 ft
Simboli :   Temporali  Nebbia  Neve Forte  Precipitazioni Forti  Vento > 20 kt
SIGMETs :   Varie  Temporali  Ghiacco  Turbolenza  Onda orograficha  Ceneri Vulcaniche







- Altitudine del aeroporto : 784 ft
- Codice IATA : TZL


LQTZ - Tuzla

ULTIMO METAR :
  • 260930Z 10005KT 070V140 9999 FEW035 29/19 Q1025

METARs OBSOLETI :
  • 260900Z VRB02KT 9999 FEW035 28/23 Q1025
  • 260830Z VRB02KT 9999 FEW035 26/23 Q1025
  • 260800Z VRB02KT 9999 FEW035 24/22 Q1025
  • 260730Z VRB02KT 6000 SCT004 21/20 Q1025
  • 260700Z VRB01KT 3000 BR BKN003 21/20 Q1025

TAF TAF LQTZ
Valido dal 26 a 06 ore il 27 a 06 ore UTC


260500Z 2606/2706 VRB02KT CAVOK TX31/2614Z TN17/2703Z
PROB40
TEMPO 2606/2608 2000 BR BKN003
PROB30
TEMPO 2702/2706 3000 BR
Nessun NOTAM noto per questo aeroporto.



MetMap, La meteo Aeronautica in un colpo d'occhio ! - Copyright ORBIFLY Dicembre 2007 - Disclaimer

ORBIFLY MET'MAP TEAM :

Programmazione e sviluppo : Alexandra Zaïnal
Concezione e sviluppo : Baudouin d'Aumeries
Co-Programmazione e sviluppo : Marc-Olivier Méhu
Supporto tecnico e logistico : Manuel Goepfert
Aiuto per la traduzione : Arnaldo La Scala

Contatto : metmap@orbifly.com




FONTI E CREDITI :

   NOAA